This is the latest recevied weather packets stored in our database for station/object AA7VG. If no packets are shown the sender has not sent any weather packets the latest 1 day(s).
| Time | Temp. | Humidity | Pressure | Rain* | Wind** | Luminosity | Snow |
|---|---|---|---|---|---|---|---|
| 1778088998 | 11.67° C | 25% | 1016.2 hPa | 0 mm | - | - | - |
| 1778087483 | 10.56° C | 27% | 1016.8 hPa | 0 mm | - | - | - |
| 1778085969 | 10.56° C | 29% | 1017 hPa | 0 mm | - | - | - |
| 1778085666 | 10.56° C | 30% | 1017 hPa | 0 mm | - | - | - |
| 1778080316 | 5.56° C | 45% | 1017.7 hPa | 0 mm | - | - | - |
| 1778079710 | 5.56° C | 46% | 1017.9 hPa | 0 mm | - | - | - |
| 1778077893 | 2.78° C | 53% | 1018.3 hPa | 0 mm | - | - | - |
| 1778076685 | 2.78° C | 54% | 1018.4 hPa | 0 mm | - | - | - |
| 1778076382 | 2.78° C | 54% | 1018.4 hPa | 0 mm | - | - | - |
| 1778075472 | 0° C | 62% | 1018.5 hPa | 0 mm | - | - | - |
| 1778074562 | -0.56° C | 65% | 1018.5 hPa | 0 mm | - | - | - |
| 1778074259 | -0.56° C | 66% | 1018.5 hPa | 0 mm | - | - | - |
| 1778073956 | -1.11° C | 67% | 1018.4 hPa | 0 mm | - | - | - |
| 1778071232 | -3.33° C | 77% | 1018.3 hPa | 0 mm | - | - | - |
| 1778070324 | -3.89° C | 77% | 1018.3 hPa | 0 mm | - | - | - |
| 1778069114 | -3.33° C | 77% | 1018.3 hPa | 0 mm | - | - | - |
| 1778068811 | -3.33° C | 76% | 1018.4 hPa | 0 mm | - | - | - |
| 1778068207 | -2.78° C | 74% | 1018.3 hPa | 0 mm | - | - | - |
| 1778067904 | -2.78° C | 74% | 1018 hPa | 0 mm | - | - | - |
| 1778066996 | -2.78° C | 74% | 1018 hPa | 0 mm | - | - | - |
| 1778066089 | -2.22° C | 73% | 1018.2 hPa | 0 mm | - | - | - |
| 1778064876 | -2.22° C | 73% | 1018.3 hPa | 0 mm | - | - | - |
| 1778062152 | -2.78° C | 75% | 1018.4 hPa | 0 mm | - | - | - |
| 1778061850 | -2.78° C | 75% | 1018.2 hPa | 0 mm | - | - | - |
| 1778061548 | -2.22° C | 75% | 1018.3 hPa | 0 mm | - | - | - |
* Rain latest hour (hover to see other rain measurements)
** Current wind speed in m/s (hover to see current wind gust speed)